sensor_id;sensor_type;location;lat;lon;timestamp;pressure;altitude;pressure_sealevel;temperature;humidity
65832;BME280;52593;42.648;23.332;2023-02-28T00:00:24;94977.88;;;5.45;100.00
65832;BME280;52593;42.648;23.332;2023-02-28T00:02:49;94981.81;;;5.41;100.00
65832;BME280;52593;42.648;23.332;2023-02-28T00:05:18;94984.19;;;5.34;100.00
65832;BME280;52593;42.648;23.332;2023-02-28T00:07:44;94972.06;;;5.31;100.00
65832;BME280;52593;42.648;23.332;2023-02-28T00:10:12;94981.53;;;5.44;100.00
65832;BME280;52593;42.648;23.332;2023-02-28T00:12:38;94986.00;;;5.53;100.00
65832;BME280;52593;42.648;23.332;2023-02-28T00:15:09;94986.44;;;5.48;100.00
65832;BME280;52593;42.648;23.332;2023-02-28T00:17:35;94971.03;;;5.52;100.00
65832;BME280;52593;42.648;23.332;2023-02-28T00:20:01;94991.59;;;5.30;100.00
65832;BME280;52593;42.648;23.332;2023-02-28T00:22:27;94982.78;;;5.40;100.00
65832;BME280;52593;42.648;23.332;2023-02-28T00:24:52;94999.41;;;5.42;100.00
65832;BME280;52593;42.648;23.332;2023-02-28T00:27:17;94998.88;;;5.28;100.00
65832;BME280;52593;42.648;23.332;2023-02-28T00:29:43;94994.94;;;5.32;100.00
65832;BME280;52593;42.648;23.332;2023-02-28T00:32:08;94986.84;;;5.34;100.00
65832;BME280;52593;42.648;23.332;2023-02-28T00:34:34;94984.06;;;5.45;100.00
65832;BME280;52593;42.648;23.332;2023-02-28T00:37:06;94990.59;;;5.51;100.00
65832;BME280;52593;42.648;23.332;2023-02-28T00:39:36;94986.00;;;5.33;100.00
65832;BME280;52593;42.648;23.332;2023-02-28T00:42:03;94990.47;;;5.43;100.00
65832;BME280;52593;42.648;23.332;2023-02-28T00:44:29;94978.47;;;5.39;100.00
65832;BME280;52593;42.648;23.332;2023-02-28T00:46:55;94985.16;;;5.43;100.00
65832;BME280;52593;42.648;23.332;2023-02-28T00:49:22;94973.31;;;5.27;100.00
65832;BME280;52593;42.648;23.332;2023-02-28T00:51:47;94974.00;;;5.29;100.00
65832;BME280;52593;42.648;23.332;2023-02-28T00:54:13;94995.50;;;5.16;100.00
65832;BME280;52593;42.648;23.332;2023-02-28T00:56:38;94990.31;;;5.05;100.00
65832;BME280;52593;42.648;23.332;2023-02-28T00:59:04;94983.66;;;5.01;100.00
65832;BME280;52593;42.648;23.332;2023-02-28T01:01:29;94991.03;;;4.97;100.00
65832;BME280;52593;42.648;23.332;2023-02-28T01:03:55;94993.53;;;4.99;100.00
65832;BME280;52593;42.648;23.332;2023-02-28T01:06:20;94984.19;;;4.95;100.00
65832;BME280;52593;42.648;23.332;2023-02-28T01:08:46;94996.75;;;4.93;100.00
65832;BME280;52593;42.648;23.332;2023-02-28T01:11:13;94980.69;;;4.94;100.00
65832;BME280;52593;42.648;23.332;2023-02-28T01:13:40;94983.19;;;4.96;100.00
65832;BME280;52593;42.648;23.332;2023-02-28T01:16:06;94986.13;;;4.93;100.00
65832;BME280;52593;42.648;23.332;2023-02-28T01:18:31;94990.88;;;4.79;100.00
65832;BME280;52593;42.648;23.332;2023-02-28T01:20:57;94987.97;;;4.82;100.00
65832;BME280;52593;42.648;23.332;2023-02-28T01:23:22;94975.13;;;4.88;100.00
65832;BME280;52593;42.648;23.332;2023-02-28T01:25:49;94971.06;;;4.74;100.00
65832;BME280;52593;42.648;23.332;2023-02-28T01:28:15;94976.47;;;4.62;100.00
65832;BME280;52593;42.648;23.332;2023-02-28T01:30:40;94974.53;;;4.64;100.00
65832;BME280;52593;42.648;23.332;2023-02-28T01:33:05;94986.13;;;4.73;100.00
65832;BME280;52593;42.648;23.332;2023-02-28T01:35:35;94984.84;;;4.77;100.00
65832;BME280;52593;42.648;23.332;2023-02-28T01:38:01;94977.31;;;4.73;100.00
65832;BME280;52593;42.648;23.332;2023-02-28T01:40:27;94980.66;;;4.65;100.00
65832;BME280;52593;42.648;23.332;2023-02-28T01:42:52;94987.91;;;4.63;100.00
65832;BME280;52593;42.648;23.332;2023-02-28T01:45:25;94991.25;;;4.65;100.00
65832;BME280;52593;42.648;23.332;2023-02-28T01:47:55;94992.25;;;4.64;100.00
65832;BME280;52593;42.648;23.332;2023-02-28T01:50:26;94984.56;;;4.71;100.00
65832;BME280;52593;42.648;23.332;2023-02-28T01:52:55;94990.88;;;4.79;100.00
65832;BME280;52593;42.648;23.332;2023-02-28T01:55:22;94991.03;;;4.78;100.00
65832;BME280;52593;42.648;23.332;2023-02-28T01:57:55;94993.50;;;4.70;100.00
65832;BME280;52593;42.648;23.332;2023-02-28T02:00:24;95000.16;;;4.54;100.00
65832;BME280;52593;42.648;23.332;2023-02-28T02:02:54;94987.88;;;4.53;100.00
65832;BME280;52593;42.648;23.332;2023-02-28T02:05:23;94979.69;;;4.66;100.00
65832;BME280;52593;42.648;23.332;2023-02-28T02:07:54;94994.63;;;4.67;100.00
65832;BME280;52593;42.648;23.332;2023-02-28T02:10:27;94992.53;;;4.71;100.00
65832;BME280;52593;42.648;23.332;2023-02-28T02:13:08;94984.44;;;4.72;100.00
65832;BME280;52593;42.648;23.332;2023-02-28T02:18:43;94984.31;;;4.83;100.00
65832;BME280;52593;42.648;23.332;2023-02-28T02:32:14;94984.72;;;4.79;100.00
65832;BME280;52593;42.648;23.332;2023-02-28T02:39:53;94984.16;;;4.85;100.00
65832;BME280;52593;42.648;23.332;2023-02-28T02:45:03;94983.25;;;4.45;100.00
65832;BME280;52593;42.648;23.332;2023-02-28T02:47:32;94993.84;;;4.36;100.00
65832;BME280;52593;42.648;23.332;2023-02-28T02:50:02;94996.69;;;4.54;100.00
65832;BME280;52593;42.648;23.332;2023-02-28T02:52:38;94990.28;;;4.66;100.00
65832;BME280;52593;42.648;23.332;2023-02-28T02:55:06;94994.03;;;4.63;100.00
65832;BME280;52593;42.648;23.332;2023-02-28T02:57:59;94992.88;;;4.46;100.00
65832;BME280;52593;42.648;23.332;2023-02-28T03:00:28;95006.69;;;4.40;100.00
65832;BME280;52593;42.648;23.332;2023-02-28T03:02:56;95014.63;;;4.40;100.00
65832;BME280;52593;42.648;23.332;2023-02-28T03:05:41;95010.16;;;4.41;100.00
65832;BME280;52593;42.648;23.332;2023-02-28T03:08:07;95015.06;;;4.45;100.00
65832;BME280;52593;42.648;23.332;2023-02-28T03:10:44;95021.91;;;4.48;100.00
65832;BME280;52593;42.648;23.332;2023-02-28T03:19:05;95032.69;;;4.66;100.00
65832;BME280;52593;42.648;23.332;2023-02-28T03:21:46;95030.06;;;4.66;100.00
65832;BME280;52593;42.648;23.332;2023-02-28T03:26:52;95023.72;;;4.47;100.00
65832;BME280;52593;42.648;23.332;2023-02-28T03:34:55;95041.88;;;4.62;100.00
65832;BME280;52593;42.648;23.332;2023-02-28T03:37:25;95037.72;;;4.69;100.00
65832;BME280;52593;42.648;23.332;2023-02-28T03:39:59;95039.56;;;4.69;100.00
65832;BME280;52593;42.648;23.332;2023-02-28T03:42:31;95037.72;;;4.69;100.00
65832;BME280;52593;42.648;23.332;2023-02-28T03:45:10;95049.34;;;4.78;100.00
65832;BME280;52593;42.648;23.332;2023-02-28T03:50:33;95053.38;;;4.82;100.00
65832;BME280;52593;42.648;23.332;2023-02-28T03:55:48;95044.31;;;4.85;100.00
65832;BME280;52593;42.648;23.332;2023-02-28T04:01:25;95059.38;;;4.74;100.00
65832;BME280;52593;42.648;23.332;2023-02-28T04:03:53;95047.94;;;4.74;100.00
65832;BME280;52593;42.648;23.332;2023-02-28T04:06:21;95056.16;;;4.71;100.00
65832;BME280;52593;42.648;23.332;2023-02-28T04:08:47;95045.91;;;4.56;100.00
65832;BME280;52593;42.648;23.332;2023-02-28T04:11:44;95057.78;;;4.62;100.00
65832;BME280;52593;42.648;23.332;2023-02-28T04:14:10;95052.75;;;4.59;100.00
65832;BME280;52593;42.648;23.332;2023-02-28T04:16:39;95029.44;;;4.53;100.00
65832;BME280;52593;42.648;23.332;2023-02-28T04:19:06;95054.25;;;4.52;100.00
65832;BME280;52593;42.648;23.332;2023-02-28T04:21:47;95040.31;;;4.50;100.00
65832;BME280;52593;42.648;23.332;2023-02-28T04:24:15;95050.66;;;4.53;100.00
65832;BME280;52593;42.648;23.332;2023-02-28T04:26:43;95048.81;;;4.53;100.00
65832;BME280;52593;42.648;23.332;2023-02-28T04:29:10;95038.50;;;4.50;100.00
65832;BME280;52593;42.648;23.332;2023-02-28T04:31:36;95039.91;;;4.54;100.00
65832;BME280;52593;42.648;23.332;2023-02-28T04:34:02;95042.56;;;4.54;100.00
65832;BME280;52593;42.648;23.332;2023-02-28T04:36:28;95050.66;;;4.53;100.00
65832;BME280;52593;42.648;23.332;2023-02-28T04:38:54;95058.72;;;4.41;100.00
65832;BME280;52593;42.648;23.332;2023-02-28T04:41:20;95057.56;;;4.34;100.00
65832;BME280;52593;42.648;23.332;2023-02-28T04:43:45;95061.34;;;4.41;100.00
65832;BME280;52593;42.648;23.332;2023-02-28T04:46:11;95059.09;;;4.37;100.00
65832;BME280;52593;42.648;23.332;2023-02-28T04:48:38;95058.09;;;4.28;100.00
65832;BME280;52593;42.648;23.332;2023-02-28T04:51:07;95069.84;;;4.35;100.00
65832;BME280;52593;42.648;23.332;2023-02-28T04:53:33;95079.78;;;4.43;100.00
65832;BME280;52593;42.648;23.332;2023-02-28T04:56:00;95077.66;;;4.37;100.00
65832;BME280;52593;42.648;23.332;2023-02-28T04:58:26;95069.38;;;4.30;100.00
65832;BME280;52593;42.648;23.332;2023-02-28T05:00:52;95075.28;;;4.34;100.00
65832;BME280;52593;42.648;23.332;2023-02-28T05:03:18;95076.22;;;4.33;100.00
65832;BME280;52593;42.648;23.332;2023-02-28T05:05:44;95082.97;;;4.46;100.00
65832;BME280;52593;42.648;23.332;2023-02-28T05:08:09;95079.78;;;4.43;100.00
65832;BME280;52593;42.648;23.332;2023-02-28T05:10:35;95071.09;;;4.41;100.00
65832;BME280;52593;42.648;23.332;2023-02-28T05:13:01;95080.34;;;4.46;100.00
65832;BME280;52593;42.648;23.332;2023-02-28T05:15:26;95071.16;;;4.51;100.00
65832;BME280;52593;42.648;23.332;2023-02-28T05:17:52;95085.16;;;4.62;100.00
65832;BME280;52593;42.648;23.332;2023-02-28T05:20:17;95087.28;;;4.69;100.00
65832;BME280;52593;42.648;23.332;2023-02-28T05:22:43;95085.28;;;4.61;100.00
65832;BME280;52593;42.648;23.332;2023-02-28T05:25:14;95098.78;;;4.58;100.00
65832;BME280;52593;42.648;23.332;2023-02-28T05:27:41;95088.03;;;4.59;100.00
65832;BME280;52593;42.648;23.332;2023-02-28T05:30:07;95094.22;;;4.60;100.00
65832;BME280;52593;42.648;23.332;2023-02-28T05:32:35;95106.50;;;4.61;100.00
65832;BME280;52593;42.648;23.332;2023-02-28T05:35:01;95093.06;;;4.53;100.00
65832;BME280;52593;42.648;23.332;2023-02-28T05:37:26;95103.44;;;4.66;100.00
65832;BME280;52593;42.648;23.332;2023-02-28T05:39:52;95108.03;;;4.63;100.00
65832;BME280;52593;42.648;23.332;2023-02-28T05:42:17;95105.16;;;4.76;100.00
65832;BME280;52593;42.648;23.332;2023-02-28T05:44:42;95106.53;;;4.71;100.00
65832;BME280;52593;42.648;23.332;2023-02-28T05:47:08;95106.03;;;4.56;100.00
65832;BME280;52593;42.648;23.332;2023-02-28T05:49:33;95104.47;;;4.53;100.00
65832;BME280;52593;42.648;23.332;2023-02-28T05:51:59;95119.97;;;4.58;100.00
65832;BME280;52593;42.648;23.332;2023-02-28T05:54:25;95124.53;;;4.67;100.00
65832;BME280;52593;42.648;23.332;2023-02-28T05:56:50;95119.09;;;4.69;100.00
65832;BME280;52593;42.648;23.332;2023-02-28T05:59:15;95123.25;;;4.71;100.00
65832;BME280;52593;42.648;23.332;2023-02-28T06:01:45;95118.81;;;4.72;100.00
65832;BME280;52593;42.648;23.332;2023-02-28T06:04:14;95115.50;;;4.79;100.00
65832;BME280;52593;42.648;23.332;2023-02-28T06:06:43;95111.97;;;4.69;100.00
65832;BME280;52593;42.648;23.332;2023-02-28T06:09:10;95121.91;;;4.87;100.00
65832;BME280;52593;42.648;23.332;2023-02-28T06:11:35;95114.09;;;4.85;100.00
65832;BME280;52593;42.648;23.332;2023-02-28T06:14:01;95124.88;;;4.93;100.00
65832;BME280;52593;42.648;23.332;2023-02-28T06:16:28;95107.03;;;4.95;100.00
65832;BME280;52593;42.648;23.332;2023-02-28T06:18:56;95102.41;;;4.97;100.00
65832;BME280;52593;42.648;23.332;2023-02-28T06:21:22;95107.88;;;5.06;100.00
65832;BME280;52593;42.648;23.332;2023-02-28T06:23:47;95104.66;;;5.02;100.00
65832;BME280;52593;42.648;23.332;2023-02-28T06:26:13;95113.59;;;5.01;100.00
65832;BME280;52593;42.648;23.332;2023-02-28T06:28:39;95105.78;;;5.09;100.00
65832;BME280;52593;42.648;23.332;2023-02-28T06:31:14;95114.31;;;5.13;100.00
65832;BME280;52593;42.648;23.332;2023-02-28T06:33:41;95126.47;;;5.25;100.00
65832;BME280;52593;42.648;23.332;2023-02-28T06:36:08;95126.66;;;5.33;100.00
65832;BME280;52593;42.648;23.332;2023-02-28T06:38:34;95121.22;;;5.35;100.00
65832;BME280;52593;42.648;23.332;2023-02-28T06:41:00;95124.13;;;5.32;100.00
65832;BME280;52593;42.648;23.332;2023-02-28T06:43:29;95134.94;;;5.50;100.00
65832;BME280;52593;42.648;23.332;2023-02-28T06:45:56;95131.56;;;5.48;100.00
65832;BME280;52593;42.648;23.332;2023-02-28T06:48:22;95141.91;;;5.51;100.00
65832;BME280;52593;42.648;23.332;2023-02-28T06:50:48;95134.47;;;5.45;100.00
65832;BME280;52593;42.648;23.332;2023-02-28T06:53:13;95138.00;;;5.55;100.00
65832;BME280;52593;42.648;23.332;2023-02-28T06:55:39;95141.91;;;5.70;100.00
65832;BME280;52593;42.648;23.332;2023-02-28T06:58:05;95141.22;;;5.68;100.00
65832;BME280;52593;42.648;23.332;2023-02-28T07:00:43;95145.41;;;5.71;100.00
65832;BME280;52593;42.648;23.332;2023-02-28T07:03:09;95144.31;;;5.64;100.00
65832;BME280;52593;42.648;23.332;2023-02-28T07:05:35;95144.53;;;5.51;100.00
65832;BME280;52593;42.648;23.332;2023-02-28T07:08:02;95148.75;;;5.44;100.00
65832;BME280;52593;42.648;23.332;2023-02-28T07:10:28;95142.44;;;5.35;100.00
65832;BME280;52593;42.648;23.332;2023-02-28T07:12:53;95137.69;;;5.39;100.00
65832;BME280;52593;42.648;23.332;2023-02-28T07:15:19;95137.97;;;5.35;100.00
65832;BME280;52593;42.648;23.332;2023-02-28T07:17:44;95137.00;;;5.27;100.00
65832;BME280;52593;42.648;23.332;2023-02-28T07:20:10;95137.53;;;5.30;100.00
65832;BME280;52593;42.648;23.332;2023-02-28T07:22:35;95135.72;;;5.21;100.00
65832;BME280;52593;42.648;23.332;2023-02-28T07:25:01;95141.72;;;5.23;100.00
65832;BME280;52593;42.648;23.332;2023-02-28T07:27:26;95140.28;;;5.19;100.00
65832;BME280;52593;42.648;23.332;2023-02-28T07:29:52;95142.41;;;5.25;100.00
65832;BME280;52593;42.648;23.332;2023-02-28T07:32:18;95142.16;;;5.28;100.00
65832;BME280;52593;42.648;23.332;2023-02-28T07:34:44;95146.38;;;5.41;100.00
65832;BME280;52593;42.648;23.332;2023-02-28T07:37:10;95147.88;;;5.43;100.00
65832;BME280;52593;42.648;23.332;2023-02-28T07:39:35;95139.94;;;5.43;100.00
65832;BME280;52593;42.648;23.332;2023-02-28T07:42:04;95147.47;;;5.38;100.00
65832;BME280;52593;42.648;23.332;2023-02-28T07:44:30;95144.41;;;5.43;100.00
65832;BME280;52593;42.648;23.332;2023-02-28T07:46:55;95140.34;;;5.39;100.00
65832;BME280;52593;42.648;23.332;2023-02-28T07:49:20;95140.50;;;5.57;100.00
65832;BME280;52593;42.648;23.332;2023-02-28T07:51:46;95128.19;;;5.56;100.00
65832;BME280;52593;42.648;23.332;2023-02-28T07:54:11;95132.53;;;5.66;100.00
65832;BME280;52593;42.648;23.332;2023-02-28T07:56:36;95132.56;;;5.76;100.00
65832;BME280;52593;42.648;23.332;2023-02-28T07:59:02;95137.72;;;5.78;100.00
65832;BME280;52593;42.648;23.332;2023-02-28T08:01:27;95127.53;;;5.83;100.00
65832;BME280;52593;42.648;23.332;2023-02-28T08:03:53;95121.69;;;5.99;100.00
65832;BME280;52593;42.648;23.332;2023-02-28T08:06:22;95132.28;;;6.09;100.00
65832;BME280;52593;42.648;23.332;2023-02-28T08:08:48;95134.25;;;6.06;100.00
65832;BME280;52593;42.648;23.332;2023-02-28T08:11:13;95130.88;;;6.04;100.00
65832;BME280;52593;42.648;23.332;2023-02-28T08:13:39;95122.06;;;6.14;100.00
65832;BME280;52593;42.648;23.332;2023-02-28T08:16:05;95116.75;;;6.14;100.00
65832;BME280;52593;42.648;23.332;2023-02-28T08:18:32;95126.81;;;6.20;100.00
65832;BME280;52593;42.648;23.332;2023-02-28T08:20:57;95132.13;;;6.30;100.00
65832;BME280;52593;42.648;23.332;2023-02-28T08:23:23;95123.19;;;6.21;100.00
65832;BME280;52593;42.648;23.332;2023-02-28T08:25:57;95129.50;;;6.10;100.00
65832;BME280;52593;42.648;23.332;2023-02-28T08:28:22;95134.94;;;6.18;100.00
65832;BME280;52593;42.648;23.332;2023-02-28T08:30:48;95122.63;;;6.17;100.00
65832;BME280;52593;42.648;23.332;2023-02-28T08:33:14;95132.13;;;6.30;100.00
65832;BME280;52593;42.648;23.332;2023-02-28T08:35:39;95132.97;;;6.30;100.00
65832;BME280;52593;42.648;23.332;2023-02-28T08:38:04;95127.09;;;6.17;100.00
65832;BME280;52593;42.648;23.332;2023-02-28T08:40:30;95139.41;;;6.18;100.00
65832;BME280;52593;42.648;23.332;2023-02-28T08:42:55;95142.22;;;6.16;100.00
65832;BME280;52593;42.648;23.332;2023-02-28T08:45:21;95130.75;;;6.06;100.00
65832;BME280;52593;42.648;23.332;2023-02-28T08:47:46;95147.25;;;6.10;100.00
65832;BME280;52593;42.648;23.332;2023-02-28T08:50:11;95138.31;;;6.20;100.00
65832;BME280;52593;42.648;23.332;2023-02-28T08:52:42;95136.59;;;6.29;100.00
65832;BME280;52593;42.648;23.332;2023-02-28T08:55:08;95144.28;;;6.32;100.00
65832;BME280;52593;42.648;23.332;2023-02-28T08:57:34;95149.22;;;6.17;100.00
65832;BME280;52593;42.648;23.332;2023-02-28T09:00:00;95147.38;;;6.18;100.00
65832;BME280;52593;42.648;23.332;2023-02-28T09:02:32;95143.06;;;6.07;100.00
65832;BME280;52593;42.648;23.332;2023-02-28T09:04:58;95139.16;;;6.11;100.00
65832;BME280;52593;42.648;23.332;2023-02-28T09:07:24;95148.81;;;6.02;100.00
65832;BME280;52593;42.648;23.332;2023-02-28T09:09:49;95132.97;;;6.11;100.00
65832;BME280;52593;42.648;23.332;2023-02-28T09:12:24;95138.00;;;6.23;100.00
65832;BME280;52593;42.648;23.332;2023-02-28T09:14:50;95141.91;;;6.39;100.00
65832;BME280;52593;42.648;23.332;2023-02-28T09:17:15;95135.16;;;6.45;100.00
65832;BME280;52593;42.648;23.332;2023-02-28T09:19:41;95136.72;;;6.37;100.00
65832;BME280;52593;42.648;23.332;2023-02-28T09:22:08;95143.41;;;6.41;100.00
65832;BME280;52593;42.648;23.332;2023-02-28T09:24:33;95140.84;;;6.59;100.00
65832;BME280;52593;42.648;23.332;2023-02-28T09:27:00;95137.19;;;6.70;100.00
65832;BME280;52593;42.648;23.332;2023-02-28T09:29:25;95125.59;;;6.99;100.00
65832;BME280;52593;42.648;23.332;2023-02-28T09:31:50;95122.91;;;7.27;100.00
65832;BME280;52593;42.648;23.332;2023-02-28T09:34:16;95117.44;;;7.28;98.89
65832;BME280;52593;42.648;23.332;2023-02-28T09:36:42;95123.38;;;7.22;99.27
65832;BME280;52593;42.648;23.332;2023-02-28T09:39:08;95118.91;;;7.41;99.72
65832;BME280;52593;42.648;23.332;2023-02-28T09:41:53;95125.84;;;7.52;98.46
65832;BME280;52593;42.648;23.332;2023-02-28T09:44:34;95132.25;;;7.59;98.29
65832;BME280;52593;42.648;23.332;2023-02-28T09:47:08;95122.69;;;7.66;98.28
65832;BME280;52593;42.648;23.332;2023-02-28T09:49:44;95119.72;;;7.69;99.48
65832;BME280;52593;42.648;23.332;2023-02-28T09:52:28;95115.28;;;7.96;99.59
65832;BME280;52593;42.648;23.332;2023-02-28T09:54:55;95103.06;;;8.11;99.26
65832;BME280;52593;42.648;23.332;2023-02-28T09:57:32;95112.94;;;8.37;96.69
65832;BME280;52593;42.648;23.332;2023-02-28T10:00:19;95113.28;;;8.42;95.41
65832;BME280;52593;42.648;23.332;2023-02-28T10:05:20;95112.13;;;8.63;93.29
65832;BME280;52593;42.648;23.332;2023-02-28T10:11:07;95103.63;;;8.93;91.56
65832;BME280;52593;42.648;23.332;2023-02-28T10:13:34;95102.97;;;8.91;90.46
65832;BME280;52593;42.648;23.332;2023-02-28T10:16:10;95098.47;;;9.00;91.05
65832;BME280;52593;42.648;23.332;2023-02-28T10:18:47;95096.28;;;8.96;90.79
65832;BME280;52593;42.648;23.332;2023-02-28T10:21:47;95088.16;;;9.05;90.12
65832;BME280;52593;42.648;23.332;2023-02-28T10:24:42;95091.19;;;9.19;88.95
65832;BME280;52593;42.648;23.332;2023-02-28T10:27:24;95084.81;;;9.03;89.75
65832;BME280;52593;42.648;23.332;2023-02-28T10:29:56;95085.19;;;9.08;89.38
65832;BME280;52593;42.648;23.332;2023-02-28T10:32:27;95089.41;;;9.27;88.29
65832;BME280;52593;42.648;23.332;2023-02-28T10:35:00;95077.41;;;9.40;88.07
65832;BME280;52593;42.648;23.332;2023-02-28T10:37:27;95070.97;;;9.84;86.51
65832;BME280;52593;42.648;23.332;2023-02-28T10:39:53;95063.13;;;9.90;84.58
65832;BME280;52593;42.648;23.332;2023-02-28T10:42:29;95067.97;;;10.11;83.83
65832;BME280;52593;42.648;23.332;2023-02-28T10:45:15;95052.41;;;10.31;82.82
65832;BME280;52593;42.648;23.332;2023-02-28T10:50:43;95047.91;;;10.07;82.67
65832;BME280;52593;42.648;23.332;2023-02-28T10:53:30;95036.03;;;10.18;82.58
65832;BME280;52593;42.648;23.332;2023-02-28T10:58:56;95031.69;;;10.25;81.46
65832;BME280;52593;42.648;23.332;2023-02-28T11:03:56;95028.34;;;10.40;80.85
65832;BME280;52593;42.648;23.332;2023-02-28T11:06:26;95023.31;;;10.45;80.72
65832;BME280;52593;42.648;23.332;2023-02-28T11:09:01;95023.31;;;10.45;79.38
65832;BME280;52593;42.648;23.332;2023-02-28T11:11:29;95012.47;;;10.38;80.60
65832;BME280;52593;42.648;23.332;2023-02-28T11:14:03;95017.94;;;10.61;79.51
65832;BME280;52593;42.648;23.332;2023-02-28T11:16:34;95015.53;;;10.75;78.46
65832;BME280;52593;42.648;23.332;2023-02-28T11:19:02;95011.03;;;10.75;77.67
65832;BME280;52593;42.648;23.332;2023-02-28T11:21:34;95013.38;;;10.78;77.23
65832;BME280;52593;42.648;23.332;2023-02-28T11:24:31;95013.66;;;10.35;78.64
65832;BME280;52593;42.648;23.332;2023-02-28T11:26:58;95018.66;;;10.22;80.49
65832;BME280;52593;42.648;23.332;2023-02-28T11:29:27;95007.28;;;10.12;80.28
65832;BME280;52593;42.648;23.332;2023-02-28T11:32:07;95011.00;;;10.11;80.41
65832;BME280;52593;42.648;23.332;2023-02-28T11:34:36;95011.16;;;10.01;80.09
65832;BME280;52593;42.648;23.332;2023-02-28T11:37:04;95007.50;;;9.94;80.85
65832;BME280;52593;42.648;23.332;2023-02-28T11:39:32;95008.47;;;10.01;81.62
65832;BME280;52593;42.648;23.332;2023-02-28T11:42:07;95010.81;;;10.04;80.96
65832;BME280;52593;42.648;23.332;2023-02-28T11:52:56;94994.63;;;10.70;77.63
65832;BME280;52593;42.648;23.332;2023-02-28T11:55:32;94987.13;;;11.05;76.39
65832;BME280;52593;42.648;23.332;2023-02-28T12:03:41;94991.84;;;10.95;76.43
65832;BME280;52593;42.648;23.332;2023-02-28T12:11:52;94996.38;;;10.55;77.20
65832;BME280;52593;42.648;23.332;2023-02-28T12:27:33;94987.47;;;10.70;74.54
65832;BME280;52593;42.648;23.332;2023-02-28T12:30:35;94990.75;;;10.81;75.21
65832;BME280;52593;42.648;23.332;2023-02-28T12:33:11;94985.38;;;10.81;75.40
65832;BME280;52593;42.648;23.332;2023-02-28T12:35:58;94988.28;;;10.71;75.70
65832;BME280;52593;42.648;23.332;2023-02-28T12:38:29;94984.03;;;10.45;77.40
65832;BME280;52593;42.648;23.332;2023-02-28T12:41:03;94982.34;;;10.52;77.20
65832;BME280;52593;42.648;23.332;2023-02-28T12:43:42;94996.41;;;10.30;78.18
65832;BME280;52593;42.648;23.332;2023-02-28T12:46:22;94990.78;;;9.92;79.50
65832;BME280;52593;42.648;23.332;2023-02-28T12:49:02;94990.28;;;9.96;80.63
65832;BME280;52593;42.648;23.332;2023-02-28T12:51:30;94991.25;;;10.12;79.79
65832;BME280;52593;42.648;23.332;2023-02-28T12:54:07;94986.75;;;10.12;79.53
65832;BME280;52593;42.648;23.332;2023-02-28T12:57:06;94990.09;;;10.14;79.04
65832;BME280;52593;42.648;23.332;2023-02-28T12:59:52;94981.69;;;10.26;78.15
65832;BME280;52593;42.648;23.332;2023-02-28T13:11:33;94980.47;;;10.53;76.46
65832;BME280;52593;42.648;23.332;2023-02-28T13:14:03;94980.34;;;10.30;77.22
65832;BME280;52593;42.648;23.332;2023-02-28T13:16:55;94989.56;;;10.27;78.31
65832;BME280;52593;42.648;23.332;2023-02-28T13:19:25;94972.16;;;10.48;77.05
65832;BME280;52593;42.648;23.332;2023-02-28T13:21:51;94971.63;;;10.52;75.84
65832;BME280;52593;42.648;23.332;2023-02-28T13:29:36;94984.16;;;10.52;74.97
65832;BME280;52593;42.648;23.332;2023-02-28T13:34:32;94982.81;;;10.56;74.61
65832;BME280;52593;42.648;23.332;2023-02-28T13:39:53;94966.69;;;10.33;74.62
65832;BME280;52593;42.648;23.332;2023-02-28T13:47:39;94968.78;;;10.54;73.66
65832;BME280;52593;42.648;23.332;2023-02-28T13:58:59;94966.00;;;10.31;74.17
65832;BME280;52593;42.648;23.332;2023-02-28T14:06:39;94958.22;;;9.80;77.11
65832;BME280;52593;42.648;23.332;2023-02-28T14:11:51;94954.22;;;9.76;77.50
65832;BME280;52593;42.648;23.332;2023-02-28T14:17:05;94958.91;;;9.82;78.37
65832;BME280;52593;42.648;23.332;2023-02-28T14:19:32;94942.84;;;9.74;78.28
65832;BME280;52593;42.648;23.332;2023-02-28T14:24:48;94952.88;;;9.88;77.64
65832;BME280;52593;42.648;23.332;2023-02-28T14:27:29;94953.72;;;9.80;78.51
65832;BME280;52593;42.648;23.332;2023-02-28T14:38:07;94954.72;;;9.63;78.81
65832;BME280;52593;42.648;23.332;2023-02-28T14:40:39;94963.56;;;9.55;79.62
65832;BME280;52593;42.648;23.332;2023-02-28T14:43:16;94961.06;;;9.54;79.71
65832;BME280;52593;42.648;23.332;2023-02-28T14:45:44;94963.91;;;9.36;79.99
65832;BME280;52593;42.648;23.332;2023-02-28T14:48:15;94970.91;;;9.37;80.70
65832;BME280;52593;42.648;23.332;2023-02-28T14:50:51;94969.25;;;9.36;80.83
65832;BME280;52593;42.648;23.332;2023-02-28T14:53:20;94960.41;;;9.27;81.19
65832;BME280;52593;42.648;23.332;2023-02-28T14:55:47;94958.34;;;9.13;81.46
65832;BME280;52593;42.648;23.332;2023-02-28T14:58:28;94963.19;;;9.09;81.97
65832;BME280;52593;42.648;23.332;2023-02-28T15:00:56;94978.19;;;9.02;82.71
65832;BME280;52593;42.648;23.332;2023-02-28T15:03:34;94980.03;;;8.93;83.01
65832;BME280;52593;42.648;23.332;2023-02-28T15:06:02;94964.13;;;8.83;83.43
65832;BME280;52593;42.648;23.332;2023-02-28T15:08:29;94965.81;;;8.76;83.92
65832;BME280;52593;42.648;23.332;2023-02-28T15:13:46;94977.28;;;8.68;84.98
65832;BME280;52593;42.648;23.332;2023-02-28T15:16:34;94960.63;;;8.40;85.77
65832;BME280;52593;42.648;23.332;2023-02-28T15:19:20;94964.13;;;8.40;87.08
65832;BME280;52593;42.648;23.332;2023-02-28T15:21:52;94963.81;;;8.44;86.81
65832;BME280;52593;42.648;23.332;2023-02-28T15:24:41;94972.53;;;8.46;86.10
65832;BME280;52593;42.648;23.332;2023-02-28T15:27:35;94975.78;;;8.39;86.49
65832;BME280;52593;42.648;23.332;2023-02-28T15:30:14;94982.78;;;8.40;86.54
65832;BME280;52593;42.648;23.332;2023-02-28T15:32:40;94980.56;;;8.28;86.55
65832;BME280;52593;42.648;23.332;2023-02-28T15:40:30;94985.78;;;8.11;88.09